sensor_id;sensor_type;location;lat;lon;timestamp;P1;durP1;ratioP1;P2;durP2;ratioP2
9547;SDS011;4812;51.992;8.648;2023-03-17T00:02:16;5.40;;;4.23;;
9547;SDS011;4812;51.992;8.648;2023-03-17T00:04:44;5.27;;;4.77;;
9547;SDS011;4812;51.992;8.648;2023-03-17T00:07:43;6.10;;;4.37;;
9547;SDS011;4812;51.992;8.648;2023-03-17T00:10:12;5.27;;;4.77;;
9547;SDS011;4812;51.992;8.648;2023-03-17T00:12:43;7.13;;;5.37;;
9547;SDS011;4812;51.992;8.648;2023-03-17T00:15:11;5.40;;;4.90;;
9547;SDS011;4812;51.992;8.648;2023-03-17T00:17:41;5.43;;;4.90;;
9547;SDS011;4812;51.992;8.648;2023-03-17T00:20:10;5.73;;;5.20;;
9547;SDS011;4812;51.992;8.648;2023-03-17T00:25:27;8.00;;;5.17;;
9547;SDS011;4812;51.992;8.648;2023-03-17T00:30:59;6.33;;;4.53;;
9547;SDS011;4812;51.992;8.648;2023-03-17T00:33:29;7.33;;;4.87;;
9547;SDS011;4812;51.992;8.648;2023-03-17T00:35:59;5.93;;;5.13;;
9547;SDS011;4812;51.992;8.648;2023-03-17T00:41:23;5.60;;;5.10;;
9547;SDS011;4812;51.992;8.648;2023-03-17T00:46:50;5.43;;;4.83;;
9547;SDS011;4812;51.992;8.648;2023-03-17T00:49:21;7.17;;;5.00;;
9547;SDS011;4812;51.992;8.648;2023-03-17T00:51:50;5.90;;;5.30;;
9547;SDS011;4812;51.992;8.648;2023-03-17T00:54:20;5.57;;;4.77;;
9547;SDS011;4812;51.992;8.648;2023-03-17T00:56:47;5.50;;;5.00;;
9547;SDS011;4812;51.992;8.648;2023-03-17T01:02:11;6.80;;;5.10;;
9547;SDS011;4812;51.992;8.648;2023-03-17T01:07:47;5.80;;;5.20;;
9547;SDS011;4812;51.992;8.648;2023-03-17T01:10:19;6.87;;;4.70;;
9547;SDS011;4812;51.992;8.648;2023-03-17T01:12:49;4.80;;;4.40;;
9547;SDS011;4812;51.992;8.648;2023-03-17T01:15:17;5.57;;;5.00;;
9547;SDS011;4812;51.992;8.648;2023-03-17T01:17:47;5.93;;;5.37;;
9547;SDS011;4812;51.992;8.648;2023-03-17T01:20:16;7.20;;;5.00;;
9547;SDS011;4812;51.992;8.648;2023-03-17T01:22:46;6.43;;;5.20;;
9547;SDS011;4812;51.992;8.648;2023-03-17T01:25:15;4.97;;;4.20;;
9547;SDS011;4812;51.992;8.648;2023-03-17T01:27:43;5.83;;;4.80;;
9547;SDS011;4812;51.992;8.648;2023-03-17T01:30:16;5.30;;;4.77;;
9547;SDS011;4812;51.992;8.648;2023-03-17T01:32:48;6.93;;;4.87;;
9547;SDS011;4812;51.992;8.648;2023-03-17T01:35:17;6.60;;;5.00;;
9547;SDS011;4812;51.992;8.648;2023-03-17T01:37:46;6.10;;;4.73;;
9547;SDS011;4812;51.992;8.648;2023-03-17T01:40:17;5.63;;;5.03;;
9547;SDS011;4812;51.992;8.648;2023-03-17T01:42:46;6.00;;;5.50;;
9547;SDS011;4812;51.992;8.648;2023-03-17T01:48:16;6.00;;;5.40;;
9547;SDS011;4812;51.992;8.648;2023-03-17T01:50:44;5.60;;;5.00;;
9547;SDS011;4812;51.992;8.648;2023-03-17T01:53:14;5.73;;;5.23;;
9547;SDS011;4812;51.992;8.648;2023-03-17T01:55:42;7.40;;;5.20;;
9547;SDS011;4812;51.992;8.648;2023-03-17T01:58:12;5.80;;;5.00;;
9547;SDS011;4812;51.992;8.648;2023-03-17T02:00:40;7.07;;;5.13;;
9547;SDS011;4812;51.992;8.648;2023-03-17T02:03:09;7.17;;;5.07;;
9547;SDS011;4812;51.992;8.648;2023-03-17T02:05:36;7.00;;;5.20;;
9547;SDS011;4812;51.992;8.648;2023-03-17T02:08:07;7.00;;;5.50;;
9547;SDS011;4812;51.992;8.648;2023-03-17T02:10:37;5.50;;;4.93;;
9547;SDS011;4812;51.992;8.648;2023-03-17T02:16:05;6.20;;;4.43;;
9547;SDS011;4812;51.992;8.648;2023-03-17T02:18:33;5.30;;;4.73;;
9547;SDS011;4812;51.992;8.648;2023-03-17T02:23:58;6.13;;;5.30;;
9547;SDS011;4812;51.992;8.648;2023-03-17T02:29:15;6.40;;;5.00;;
9547;SDS011;4812;51.992;8.648;2023-03-17T02:31:43;5.97;;;5.20;;
9547;SDS011;4812;51.992;8.648;2023-03-17T02:34:11;7.00;;;5.10;;
9547;SDS011;4812;51.992;8.648;2023-03-17T02:36:40;6.37;;;5.37;;
9547;SDS011;4812;51.992;8.648;2023-03-17T02:39:08;5.73;;;5.10;;
9547;SDS011;4812;51.992;8.648;2023-03-17T02:41:36;9.43;;;5.87;;
9547;SDS011;4812;51.992;8.648;2023-03-17T02:44:04;5.83;;;5.23;;
9547;SDS011;4812;51.992;8.648;2023-03-17T02:46:31;5.77;;;5.17;;
9547;SDS011;4812;51.992;8.648;2023-03-17T02:48:59;5.43;;;4.80;;
9547;SDS011;4812;51.992;8.648;2023-03-17T02:54:11;5.87;;;5.27;;
9547;SDS011;4812;51.992;8.648;2023-03-17T02:59:41;5.57;;;5.07;;
9547;SDS011;4812;51.992;8.648;2023-03-17T03:02:08;5.97;;;5.33;;
9547;SDS011;4812;51.992;8.648;2023-03-17T03:04:36;7.47;;;5.27;;
9547;SDS011;4812;51.992;8.648;2023-03-17T03:07:04;6.57;;;4.93;;
9547;SDS011;4812;51.992;8.648;2023-03-17T03:09:32;5.13;;;4.53;;
9547;SDS011;4812;51.992;8.648;2023-03-17T03:12:00;6.13;;;5.00;;
9547;SDS011;4812;51.992;8.648;2023-03-17T03:14:28;7.10;;;4.43;;
9547;SDS011;4812;51.992;8.648;2023-03-17T03:16:55;5.73;;;4.77;;
9547;SDS011;4812;51.992;8.648;2023-03-17T03:19:23;5.80;;;5.20;;
9547;SDS011;4812;51.992;8.648;2023-03-17T03:21:51;5.60;;;4.87;;
9547;SDS011;4812;51.992;8.648;2023-03-17T03:24:18;5.00;;;4.50;;
9547;SDS011;4812;51.992;8.648;2023-03-17T03:26:47;6.23;;;4.90;;
9547;SDS011;4812;51.992;8.648;2023-03-17T03:29:14;5.80;;;5.20;;
9547;SDS011;4812;51.992;8.648;2023-03-17T03:31:42;5.43;;;4.93;;
9547;SDS011;4812;51.992;8.648;2023-03-17T03:34:09;5.93;;;5.00;;
9547;SDS011;4812;51.992;8.648;2023-03-17T03:36:37;5.07;;;4.67;;
9547;SDS011;4812;51.992;8.648;2023-03-17T03:41:53;5.73;;;5.20;;
9547;SDS011;4812;51.992;8.648;2023-03-17T03:44:23;7.93;;;4.50;;
9547;SDS011;4812;51.992;8.648;2023-03-17T03:46:51;5.67;;;5.03;;
9547;SDS011;4812;51.992;8.648;2023-03-17T03:49:18;7.10;;;5.20;;
9547;SDS011;4812;51.992;8.648;2023-03-17T03:51:46;7.60;;;4.90;;
9547;SDS011;4812;51.992;8.648;2023-03-17T03:54:13;6.33;;;5.20;;
9547;SDS011;4812;51.992;8.648;2023-03-17T03:56:41;8.30;;;4.63;;
9547;SDS011;4812;51.992;8.648;2023-03-17T03:59:09;5.40;;;4.90;;
9547;SDS011;4812;51.992;8.648;2023-03-17T04:01:37;5.20;;;4.70;;
9547;SDS011;4812;51.992;8.648;2023-03-17T04:04:05;6.07;;;5.20;;
9547;SDS011;4812;51.992;8.648;2023-03-17T04:06:32;5.93;;;5.33;;
9547;SDS011;4812;51.992;8.648;2023-03-17T04:09:00;5.97;;;5.37;;
9547;SDS011;4812;51.992;8.648;2023-03-17T04:11:27;5.77;;;5.20;;
9547;SDS011;4812;51.992;8.648;2023-03-17T04:13:55;6.40;;;4.73;;
9547;SDS011;4812;51.992;8.648;2023-03-17T04:16:24;5.70;;;5.10;;
9547;SDS011;4812;51.992;8.648;2023-03-17T04:18:52;5.63;;;5.13;;
9547;SDS011;4812;51.992;8.648;2023-03-17T04:24:22;5.70;;;5.20;;
9547;SDS011;4812;51.992;8.648;2023-03-17T04:26:50;7.60;;;5.10;;
9547;SDS011;4812;51.992;8.648;2023-03-17T04:29:18;6.37;;;5.27;;
9547;SDS011;4812;51.992;8.648;2023-03-17T04:31:47;6.73;;;6.00;;
9547;SDS011;4812;51.992;8.648;2023-03-17T04:34:15;5.23;;;4.73;;
9547;SDS011;4812;51.992;8.648;2023-03-17T04:39:46;6.07;;;4.90;;
9547;SDS011;4812;51.992;8.648;2023-03-17T04:42:14;5.60;;;5.13;;
9547;SDS011;4812;51.992;8.648;2023-03-17T04:44:41;5.80;;;5.20;;
9547;SDS011;4812;51.992;8.648;2023-03-17T04:47:10;5.67;;;5.10;;
9547;SDS011;4812;51.992;8.648;2023-03-17T04:49:38;9.03;;;6.93;;
9547;SDS011;4812;51.992;8.648;2023-03-17T04:52:06;11.20;;;7.63;;
9547;SDS011;4812;51.992;8.648;2023-03-17T04:54:33;12.10;;;6.90;;
9547;SDS011;4812;51.992;8.648;2023-03-17T04:57:01;7.63;;;5.80;;
9547;SDS011;4812;51.992;8.648;2023-03-17T04:59:29;5.90;;;5.30;;
9547;SDS011;4812;51.992;8.648;2023-03-17T05:01:56;6.90;;;5.97;;
9547;SDS011;4812;51.992;8.648;2023-03-17T05:04:25;7.70;;;5.50;;
9547;SDS011;4812;51.992;8.648;2023-03-17T05:06:57;10.03;;;5.87;;
9547;SDS011;4812;51.992;8.648;2023-03-17T05:09:25;5.83;;;5.13;;
9547;SDS011;4812;51.992;8.648;2023-03-17T05:11:53;5.73;;;5.03;;
9547;SDS011;4812;51.992;8.648;2023-03-17T05:17:19;5.73;;;5.10;;
9547;SDS011;4812;51.992;8.648;2023-03-17T05:19:48;5.53;;;4.97;;
9547;SDS011;4812;51.992;8.648;2023-03-17T05:22:16;10.43;;;5.33;;
9547;SDS011;4812;51.992;8.648;2023-03-17T05:24:43;5.47;;;4.97;;
9547;SDS011;4812;51.992;8.648;2023-03-17T05:27:11;6.77;;;4.97;;
9547;SDS011;4812;51.992;8.648;2023-03-17T05:32:41;7.37;;;5.40;;
9547;SDS011;4812;51.992;8.648;2023-03-17T05:35:11;5.97;;;5.23;;
9547;SDS011;4812;51.992;8.648;2023-03-17T05:37:39;6.53;;;5.57;;
9547;SDS011;4812;51.992;8.648;2023-03-17T05:40:07;7.67;;;6.03;;
9547;SDS011;4812;51.992;8.648;2023-03-17T05:45:34;8.03;;;5.80;;
9547;SDS011;4812;51.992;8.648;2023-03-17T05:48:02;6.83;;;6.07;;
9547;SDS011;4812;51.992;8.648;2023-03-17T05:50:31;6.73;;;5.63;;
9547;SDS011;4812;51.992;8.648;2023-03-17T05:52:59;7.77;;;6.57;;
9547;SDS011;4812;51.992;8.648;2023-03-17T05:55:27;7.37;;;6.10;;
9547;SDS011;4812;51.992;8.648;2023-03-17T06:00:42;7.27;;;6.40;;
9547;SDS011;4812;51.992;8.648;2023-03-17T06:03:10;9.13;;;7.00;;
9547;SDS011;4812;51.992;8.648;2023-03-17T06:05:39;8.13;;;6.97;;
9547;SDS011;4812;51.992;8.648;2023-03-17T06:08:07;9.70;;;7.37;;
9547;SDS011;4812;51.992;8.648;2023-03-17T06:13:33;9.67;;;6.87;;
9547;SDS011;4812;51.992;8.648;2023-03-17T06:16:01;9.23;;;7.00;;
9547;SDS011;4812;51.992;8.648;2023-03-17T06:18:29;8.13;;;6.93;;
9547;SDS011;4812;51.992;8.648;2023-03-17T06:20:58;9.73;;;6.83;;
9547;SDS011;4812;51.992;8.648;2023-03-17T06:23:25;9.00;;;7.17;;
9547;SDS011;4812;51.992;8.648;2023-03-17T06:25:52;10.83;;;6.67;;
9547;SDS011;4812;51.992;8.648;2023-03-17T06:28:20;7.27;;;6.53;;
9547;SDS011;4812;51.992;8.648;2023-03-17T06:30:48;7.30;;;6.57;;
9547;SDS011;4812;51.992;8.648;2023-03-17T06:33:16;7.90;;;6.53;;
9547;SDS011;4812;51.992;8.648;2023-03-17T06:35:44;8.67;;;6.17;;
9547;SDS011;4812;51.992;8.648;2023-03-17T06:38:13;8.27;;;5.70;;
9547;SDS011;4812;51.992;8.648;2023-03-17T06:40:40;8.93;;;6.13;;
9547;SDS011;4812;51.992;8.648;2023-03-17T06:45:56;6.53;;;5.10;;
9547;SDS011;4812;51.992;8.648;2023-03-17T06:48:24;7.43;;;5.80;;
9547;SDS011;4812;51.992;8.648;2023-03-17T06:50:52;5.77;;;5.23;;
9547;SDS011;4812;51.992;8.648;2023-03-17T06:53:20;5.97;;;5.37;;
9547;SDS011;4812;51.992;8.648;2023-03-17T06:55:48;6.60;;;5.70;;
9547;SDS011;4812;51.992;8.648;2023-03-17T06:58:15;5.80;;;5.20;;
9547;SDS011;4812;51.992;8.648;2023-03-17T07:00:43;4.90;;;4.50;;
9547;SDS011;4812;51.992;8.648;2023-03-17T07:03:12;4.50;;;4.10;;
9547;SDS011;4812;51.992;8.648;2023-03-17T07:08:44;5.20;;;4.70;;
9547;SDS011;4812;51.992;8.648;2023-03-17T07:11:12;4.60;;;4.20;;
9547;SDS011;4812;51.992;8.648;2023-03-17T07:13:39;4.57;;;4.20;;
9547;SDS011;4812;51.992;8.648;2023-03-17T07:16:07;5.43;;;4.43;;
9547;SDS011;4812;51.992;8.648;2023-03-17T07:18:36;4.50;;;4.10;;
9547;SDS011;4812;51.992;8.648;2023-03-17T07:21:04;4.83;;;4.33;;
9547;SDS011;4812;51.992;8.648;2023-03-17T07:23:32;4.77;;;4.23;;
9547;SDS011;4812;51.992;8.648;2023-03-17T07:26:00;5.00;;;4.50;;
9547;SDS011;4812;51.992;8.648;2023-03-17T07:28:28;4.83;;;4.33;;
9547;SDS011;4812;51.992;8.648;2023-03-17T07:30:56;4.80;;;4.40;;
9547;SDS011;4812;51.992;8.648;2023-03-17T07:33:25;5.00;;;4.50;;
9547;SDS011;4812;51.992;8.648;2023-03-17T07:38:55;4.27;;;3.87;;
9547;SDS011;4812;51.992;8.648;2023-03-17T07:41:24;5.47;;;4.53;;
9547;SDS011;4812;51.992;8.648;2023-03-17T07:43:51;4.70;;;4.30;;
9547;SDS011;4812;51.992;8.648;2023-03-17T07:46:19;6.40;;;4.40;;
9547;SDS011;4812;51.992;8.648;2023-03-17T07:48:47;4.63;;;4.20;;
9547;SDS011;4812;51.992;8.648;2023-03-17T07:51:15;4.17;;;3.73;;
9547;SDS011;4812;51.992;8.648;2023-03-17T07:53:44;6.10;;;4.60;;
9547;SDS011;4812;51.992;8.648;2023-03-17T07:56:12;4.57;;;4.13;;
9547;SDS011;4812;51.992;8.648;2023-03-17T07:58:40;5.20;;;4.30;;
9547;SDS011;4812;51.992;8.648;2023-03-17T08:01:08;4.80;;;4.40;;
9547;SDS011;4812;51.992;8.648;2023-03-17T08:03:35;4.87;;;4.37;;
9547;SDS011;4812;51.992;8.648;2023-03-17T08:06:06;4.37;;;3.97;;
9547;SDS011;4812;51.992;8.648;2023-03-17T08:08:34;4.00;;;3.60;;
9547;SDS011;4812;51.992;8.648;2023-03-17T08:11:02;4.20;;;3.80;;
9547;SDS011;4812;51.992;8.648;2023-03-17T08:16:31;5.10;;;4.10;;
9547;SDS011;4812;51.992;8.648;2023-03-17T08:18:59;4.33;;;3.93;;
9547;SDS011;4812;51.992;8.648;2023-03-17T08:21:29;5.80;;;3.40;;
9547;SDS011;4812;51.992;8.648;2023-03-17T08:23:57;4.33;;;3.80;;
9547;SDS011;4812;51.992;8.648;2023-03-17T08:29:17;5.07;;;4.10;;
9547;SDS011;4812;51.992;8.648;2023-03-17T08:31:47;4.43;;;4.10;;
9547;SDS011;4812;51.992;8.648;2023-03-17T08:34:14;4.60;;;4.20;;
9547;SDS011;4812;51.992;8.648;2023-03-17T08:36:42;4.80;;;4.30;;
9547;SDS011;4812;51.992;8.648;2023-03-17T08:41:58;4.23;;;3.93;;
9547;SDS011;4812;51.992;8.648;2023-03-17T08:44:26;4.30;;;4.00;;
9547;SDS011;4812;51.992;8.648;2023-03-17T08:46:55;4.53;;;4.13;;
9547;SDS011;4812;51.992;8.648;2023-03-17T08:49:26;4.33;;;4.03;;
9547;SDS011;4812;51.992;8.648;2023-03-17T08:51:54;4.90;;;4.40;;
9547;SDS011;4812;51.992;8.648;2023-03-17T08:57:23;4.83;;;4.37;;
9547;SDS011;4812;51.992;8.648;2023-03-17T08:59:51;6.63;;;4.43;;
9547;SDS011;4812;51.992;8.648;2023-03-17T09:05:23;4.60;;;4.20;;
9547;SDS011;4812;51.992;8.648;2023-03-17T09:07:50;4.67;;;4.10;;
9547;SDS011;4812;51.992;8.648;2023-03-17T09:10:18;4.63;;;4.13;;
9547;SDS011;4812;51.992;8.648;2023-03-17T09:12:48;4.63;;;3.80;;
9547;SDS011;4812;51.992;8.648;2023-03-17T09:15:16;5.07;;;4.00;;
9547;SDS011;4812;51.992;8.648;2023-03-17T09:20:47;4.60;;;4.10;;
9547;SDS011;4812;51.992;8.648;2023-03-17T09:23:15;5.30;;;3.90;;
9547;SDS011;4812;51.992;8.648;2023-03-17T09:25:43;4.40;;;3.90;;
9547;SDS011;4812;51.992;8.648;2023-03-17T09:28:11;4.70;;;4.17;;
9547;SDS011;4812;51.992;8.648;2023-03-17T09:30:39;4.33;;;3.93;;
9547;SDS011;4812;51.992;8.648;2023-03-17T09:33:07;5.00;;;4.50;;
9547;SDS011;4812;51.992;8.648;2023-03-17T09:35:35;5.00;;;4.07;;
9547;SDS011;4812;51.992;8.648;2023-03-17T09:38:04;4.63;;;4.03;;
9547;SDS011;4812;51.992;8.648;2023-03-17T09:43:23;4.30;;;3.90;;
9547;SDS011;4812;51.992;8.648;2023-03-17T09:45:54;4.50;;;3.83;;
9547;SDS011;4812;51.992;8.648;2023-03-17T09:48:26;4.10;;;3.80;;
9547;SDS011;4812;51.992;8.648;2023-03-17T09:50:59;4.87;;;3.80;;
9547;SDS011;4812;51.992;8.648;2023-03-17T09:53:32;4.33;;;3.83;;
9547;SDS011;4812;51.992;8.648;2023-03-17T09:56:02;4.40;;;4.00;;
9547;SDS011;4812;51.992;8.648;2023-03-17T09:58:33;4.97;;;3.40;;
9547;SDS011;4812;51.992;8.648;2023-03-17T10:01:02;4.03;;;3.63;;
9547;SDS011;4812;51.992;8.648;2023-03-17T10:03:31;5.53;;;3.60;;
9547;SDS011;4812;51.992;8.648;2023-03-17T10:06:14;5.10;;;3.70;;
9547;SDS011;4812;51.992;8.648;2023-03-17T10:08:47;4.80;;;3.70;;
9547;SDS011;4812;51.992;8.648;2023-03-17T10:11:22;3.97;;;3.30;;
9547;SDS011;4812;51.992;8.648;2023-03-17T10:13:56;4.47;;;3.30;;
9547;SDS011;4812;51.992;8.648;2023-03-17T10:19:30;4.00;;;3.33;;
9547;SDS011;4812;51.992;8.648;2023-03-17T10:21:59;5.57;;;3.20;;
9547;SDS011;4812;51.992;8.648;2023-03-17T10:24:31;4.23;;;3.60;;
9547;SDS011;4812;51.992;8.648;2023-03-17T10:26:59;4.17;;;3.30;;
9547;SDS011;4812;51.992;8.648;2023-03-17T10:29:29;6.70;;;3.37;;
9547;SDS011;4812;51.992;8.648;2023-03-17T10:31:57;3.63;;;3.33;;
9547;SDS011;4812;51.992;8.648;2023-03-17T10:34:26;4.83;;;3.70;;
9547;SDS011;4812;51.992;8.648;2023-03-17T10:39:55;4.47;;;3.50;;
9547;SDS011;4812;51.992;8.648;2023-03-17T10:42:25;8.37;;;3.33;;
9547;SDS011;4812;51.992;8.648;2023-03-17T10:44:54;5.13;;;3.53;;
9547;SDS011;4812;51.992;8.648;2023-03-17T10:47:24;3.50;;;3.20;;
9547;SDS011;4812;51.992;8.648;2023-03-17T10:52:44;4.73;;;3.30;;
9547;SDS011;4812;51.992;8.648;2023-03-17T10:55:15;4.17;;;3.50;;
9547;SDS011;4812;51.992;8.648;2023-03-17T10:57:48;3.77;;;3.40;;
9547;SDS011;4812;51.992;8.648;2023-03-17T11:03:19;4.67;;;3.30;;
9547;SDS011;4812;51.992;8.648;2023-03-17T11:05:53;5.03;;;3.57;;
9547;SDS011;4812;51.992;8.648;2023-03-17T11:08:21;4.13;;;3.40;;
9547;SDS011;4812;51.992;8.648;2023-03-17T11:10:54;3.60;;;3.30;;
9547;SDS011;4812;51.992;8.648;2023-03-17T11:13:27;4.53;;;3.77;;
9547;SDS011;4812;51.992;8.648;2023-03-17T11:15:57;4.87;;;3.33;;
9547;SDS011;4812;51.992;8.648;2023-03-17T11:18:37;4.10;;;3.70;;
9547;SDS011;4812;51.992;8.648;2023-03-17T11:21:05;4.00;;;3.60;;
9547;SDS011;4812;51.992;8.648;2023-03-17T11:23:38;5.27;;;3.60;;
9547;SDS011;4812;51.992;8.648;2023-03-17T11:26:16;4.53;;;3.67;;
9547;SDS011;4812;51.992;8.648;2023-03-17T11:28:54;3.60;;;3.20;;
9547;SDS011;4812;51.992;8.648;2023-03-17T11:31:27;5.37;;;3.87;;
9547;SDS011;4812;51.992;8.648;2023-03-17T11:36:48;4.23;;;3.77;;
9547;SDS011;4812;51.992;8.648;2023-03-17T11:39:24;4.10;;;3.70;;
9547;SDS011;4812;51.992;8.648;2023-03-17T11:41:57;5.13;;;3.73;;
9547;SDS011;4812;51.992;8.648;2023-03-17T11:44:34;3.70;;;3.40;;
9547;SDS011;4812;51.992;8.648;2023-03-17T11:47:07;6.20;;;4.13;;
9547;SDS011;4812;51.992;8.648;2023-03-17T11:49:43;4.00;;;3.60;;
9547;SDS011;4812;51.992;8.648;2023-03-17T11:52:18;4.10;;;3.80;;
9547;SDS011;4812;51.992;8.648;2023-03-17T11:57:52;4.63;;;3.87;;
9547;SDS011;4812;51.992;8.648;2023-03-17T12:00:23;4.43;;;3.80;;
9547;SDS011;4812;51.992;8.648;2023-03-17T12:03:26;5.67;;;3.83;;
9547;SDS011;4812;51.992;8.648;2023-03-17T12:05:59;3.77;;;3.37;;
9547;SDS011;4812;51.992;8.648;2023-03-17T12:08:33;4.73;;;3.80;;
9547;SDS011;4812;51.992;8.648;2023-03-17T12:11:04;4.00;;;3.60;;
9547;SDS011;4812;51.992;8.648;2023-03-17T12:16:25;4.00;;;3.60;;
9547;SDS011;4812;51.992;8.648;2023-03-17T12:18:56;4.97;;;3.40;;
9547;SDS011;4812;51.992;8.648;2023-03-17T12:21:31;4.27;;;3.87;;
9547;SDS011;4812;51.992;8.648;2023-03-17T12:24:03;4.83;;;4.07;;
9547;SDS011;4812;51.992;8.648;2023-03-17T12:26:37;4.50;;;3.90;;
9547;SDS011;4812;51.992;8.648;2023-03-17T12:32:02;3.90;;;3.50;;
9547;SDS011;4812;51.992;8.648;2023-03-17T12:34:32;4.90;;;4.40;;
9547;SDS011;4812;51.992;8.648;2023-03-17T12:37:03;5.03;;;4.07;;
9547;SDS011;4812;51.992;8.648;2023-03-17T12:39:31;4.40;;;4.00;;
9547;SDS011;4812;51.992;8.648;2023-03-17T12:51:03;5.63;;;4.10;;
9547;SDS011;4812;51.992;8.648;2023-03-17T12:53:39;4.20;;;3.80;;
9547;SDS011;4812;51.992;8.648;2023-03-17T12:56:10;4.37;;;3.97;;
9547;SDS011;4812;51.992;8.648;2023-03-17T12:58:43;4.47;;;4.07;;
9547;SDS011;4812;51.992;8.648;2023-03-17T13:01:15;6.43;;;4.40;;
9547;SDS011;4812;51.992;8.648;2023-03-17T13:03:56;4.47;;;4.07;;
9547;SDS011;4812;51.992;8.648;2023-03-17T13:09:35;4.50;;;3.70;;
9547;SDS011;4812;51.992;8.648;2023-03-17T13:15:01;4.40;;;3.70;;
9547;SDS011;4812;51.992;8.648;2023-03-17T13:17:30;4.60;;;4.20;;
9547;SDS011;4812;51.992;8.648;2023-03-17T13:20:10;7.90;;;3.70;;
9547;SDS011;4812;51.992;8.648;2023-03-17T13:22:41;5.90;;;3.60;;
9547;SDS011;4812;51.992;8.648;2023-03-17T13:25:30;5.13;;;3.90;;
9547;SDS011;4812;51.992;8.648;2023-03-17T13:28:15;6.30;;;3.67;;
9547;SDS011;4812;51.992;8.648;2023-03-17T13:30:53;4.23;;;3.90;;
9547;SDS011;4812;51.992;8.648;2023-03-17T13:33:26;5.50;;;4.33;;
9547;SDS011;4812;51.992;8.648;2023-03-17T13:35:58;4.20;;;3.80;;
9547;SDS011;4812;51.992;8.648;2023-03-17T13:38:36;4.83;;;4.13;;
9547;SDS011;4812;51.992;8.648;2023-03-17T13:41:23;4.70;;;4.30;;
9547;SDS011;4812;51.992;8.648;2023-03-17T13:47:07;5.57;;;4.50;;
9547;SDS011;4812;51.992;8.648;2023-03-17T13:49:37;5.07;;;3.90;;
9547;SDS011;4812;51.992;8.648;2023-03-17T13:52:06;4.60;;;4.20;;
9547;SDS011;4812;51.992;8.648;2023-03-17T13:54:39;4.73;;;3.80;;
9547;SDS011;4812;51.992;8.648;2023-03-17T13:57:22;3.60;;;3.30;;
9547;SDS011;4812;51.992;8.648;2023-03-17T14:02:56;4.97;;;3.60;;
9547;SDS011;4812;51.992;8.648;2023-03-17T14:05:28;5.63;;;4.17;;
9547;SDS011;4812;51.992;8.648;2023-03-17T14:07:59;4.47;;;4.07;;
9547;SDS011;4812;51.992;8.648;2023-03-17T14:10:29;5.27;;;4.17;;
9547;SDS011;4812;51.992;8.648;2023-03-17T14:13:02;4.73;;;4.13;;
9547;SDS011;4812;51.992;8.648;2023-03-17T14:15:36;5.03;;;3.80;;
9547;SDS011;4812;51.992;8.648;2023-03-17T14:18:14;4.50;;;3.90;;
9547;SDS011;4812;51.992;8.648;2023-03-17T14:20:50;3.93;;;3.57;;
9547;SDS011;4812;51.992;8.648;2023-03-17T14:26:22;4.20;;;3.80;;
9547;SDS011;4812;51.992;8.648;2023-03-17T14:28:51;5.23;;;3.53;;
9547;SDS011;4812;51.992;8.648;2023-03-17T14:31:20;4.20;;;3.80;;
9547;SDS011;4812;51.992;8.648;2023-03-17T14:33:50;4.37;;;3.70;;
9547;SDS011;4812;51.992;8.648;2023-03-17T14:36:19;3.90;;;3.60;;
9547;SDS011;4812;51.992;8.648;2023-03-17T14:38:47;3.77;;;3.47;;
9547;SDS011;4812;51.992;8.648;2023-03-17T14:41:17;5.43;;;3.63;;
9547;SDS011;4812;51.992;8.648;2023-03-17T14:43:46;3.90;;;3.50;;
9547;SDS011;4812;51.992;8.648;2023-03-17T14:46:15;4.63;;;3.60;;
9547;SDS011;4812;51.992;8.648;2023-03-17T14:51:39;5.20;;;3.50;;
9547;SDS011;4812;51.992;8.648;2023-03-17T14:54:09;4.03;;;3.13;;
9547;SDS011;4812;51.992;8.648;2023-03-17T14:59:42;4.37;;;3.97;;
9547;SDS011;4812;51.992;8.648;2023-03-17T15:02:16;4.10;;;3.40;;
9547;SDS011;4812;51.992;8.648;2023-03-17T15:04:48;4.27;;;3.70;;
9547;SDS011;4812;51.992;8.648;2023-03-17T15:07:28;4.07;;;3.50;;
9547;SDS011;4812;51.992;8.648;2023-03-17T15:12:58;4.00;;;3.43;;
9547;SDS011;4812;51.992;8.648;2023-03-17T15:15:28;5.53;;;3.87;;
9547;SDS011;4812;51.992;8.648;2023-03-17T15:20:49;5.43;;;4.30;;
9547;SDS011;4812;51.992;8.648;2023-03-17T15:23:17;3.70;;;3.40;;
9547;SDS011;4812;51.992;8.648;2023-03-17T15:26:21;4.93;;;3.70;;
9547;SDS011;4812;51.992;8.648;2023-03-17T15:28:50;5.60;;;3.63;;
9547;SDS011;4812;51.992;8.648;2023-03-17T15:31:18;6.00;;;4.37;;
9547;SDS011;4812;51.992;8.648;2023-03-17T15:33:48;5.80;;;3.83;;
9547;SDS011;4812;51.992;8.648;2023-03-17T15:36:17;4.63;;;3.67;;
9547;SDS011;4812;51.992;8.648;2023-03-17T15:38:57;4.27;;;3.67;;
9547;SDS011;4812;51.992;8.648;2023-03-17T15:41:25;5.27;;;3.70;;
9547;SDS011;4812;51.992;8.648;2023-03-17T15:46:55;3.90;;;3.60;;
9547;SDS011;4812;51.992;8.648;2023-03-17T15:49:23;4.23;;;3.63;;
9547;SDS011;4812;51.992;8.648;2023-03-17T15:51:53;4.47;;;3.83;;
9547;SDS011;4812;51.992;8.648;2023-03-17T15:54:21;4.57;;;3.90;;
9547;SDS011;4812;51.992;8.648;2023-03-17T15:56:48;5.47;;;3.40;;
9547;SDS011;4812;51.992;8.648;2023-03-17T15:59:16;3.80;;;3.50;;
9547;SDS011;4812;51.992;8.648;2023-03-17T16:01:43;4.37;;;3.80;;
9547;SDS011;4812;51.992;8.648;2023-03-17T16:04:11;5.33;;;3.87;;
9547;SDS011;4812;51.992;8.648;2023-03-17T16:06:38;4.50;;;4.10;;
9547;SDS011;4812;51.992;8.648;2023-03-17T16:09:12;6.37;;;4.47;;
9547;SDS011;4812;51.992;8.648;2023-03-17T16:11:41;6.93;;;3.60;;
9547;SDS011;4812;51.992;8.648;2023-03-17T16:14:09;4.20;;;3.80;;
9547;SDS011;4812;51.992;8.648;2023-03-17T16:16:37;3.97;;;3.57;;
9547;SDS011;4812;51.992;8.648;2023-03-17T16:19:07;8.40;;;3.80;;
9547;SDS011;4812;51.992;8.648;2023-03-17T16:21:42;5.90;;;4.40;;
9547;SDS011;4812;51.992;8.648;2023-03-17T16:24:13;4.77;;;3.80;;
9547;SDS011;4812;51.992;8.648;2023-03-17T16:26:43;4.90;;;4.20;;
9547;SDS011;4812;51.992;8.648;2023-03-17T16:29:11;4.20;;;3.80;;
9547;SDS011;4812;51.992;8.648;2023-03-17T16:34:37;5.37;;;4.23;;
9547;SDS011;4812;51.992;8.648;2023-03-17T16:37:07;4.07;;;3.67;;
9547;SDS011;4812;51.992;8.648;2023-03-17T16:39:36;4.10;;;3.80;;
9547;SDS011;4812;51.992;8.648;2023-03-17T16:44:58;4.50;;;4.10;;
9547;SDS011;4812;51.992;8.648;2023-03-17T16:50:28;4.97;;;4.47;;
9547;SDS011;4812;51.992;8.648;2023-03-17T16:52:57;4.67;;;4.20;;
9547;SDS011;4812;51.992;8.648;2023-03-17T16:55:26;5.40;;;4.30;;
9547;SDS011;4812;51.992;8.648;2023-03-17T16:57:56;5.97;;;4.17;;
9547;SDS011;4812;51.992;8.648;2023-03-17T17:00:26;4.90;;;3.90;;
9547;SDS011;4812;51.992;8.648;2023-03-17T17:02:56;4.50;;;4.10;;
9547;SDS011;4812;51.992;8.648;2023-03-17T17:05:25;5.97;;;3.97;;
9547;SDS011;4812;51.992;8.648;2023-03-17T17:07:54;5.03;;;3.87;;
9547;SDS011;4812;51.992;8.648;2023-03-17T17:10:23;5.30;;;4.13;;
9547;SDS011;4812;51.992;8.648;2023-03-17T17:12:53;4.50;;;4.03;;
9547;SDS011;4812;51.992;8.648;2023-03-17T17:15:21;4.67;;;4.10;;
9547;SDS011;4812;51.992;8.648;2023-03-17T17:17:49;5.17;;;4.30;;
9547;SDS011;4812;51.992;8.648;2023-03-17T17:20:19;4.73;;;4.17;;
9547;SDS011;4812;51.992;8.648;2023-03-17T17:22:47;6.00;;;4.50;;
9547;SDS011;4812;51.992;8.648;2023-03-17T17:25:15;4.20;;;3.80;;
9547;SDS011;4812;51.992;8.648;2023-03-17T17:30:33;6.50;;;4.30;;
9547;SDS011;4812;51.992;8.648;2023-03-17T17:33:00;4.47;;;4.07;;
9547;SDS011;4812;51.992;8.648;2023-03-17T17:35:29;4.20;;;3.80;;
9547;SDS011;4812;51.992;8.648;2023-03-17T17:37:58;4.43;;;3.53;;
9547;SDS011;4812;51.992;8.648;2023-03-17T17:40:26;5.03;;;3.70;;
9547;SDS011;4812;51.992;8.648;2023-03-17T17:42:54;4.63;;;3.80;;
9547;SDS011;4812;51.992;8.648;2023-03-17T17:48:27;5.13;;;3.87;;
9547;SDS011;4812;51.992;8.648;2023-03-17T17:50:54;4.30;;;3.90;;
9547;SDS011;4812;51.992;8.648;2023-03-17T17:53:23;7.43;;;4.50;;
9547;SDS011;4812;51.992;8.648;2023-03-17T17:55:50;5.60;;;4.20;;
9547;SDS011;4812;51.992;8.648;2023-03-17T17:58:18;4.83;;;4.30;;
9547;SDS011;4812;51.992;8.648;2023-03-17T18:00:49;4.40;;;4.03;;
9547;SDS011;4812;51.992;8.648;2023-03-17T18:03:17;3.83;;;3.53;;
9547;SDS011;4812;51.992;8.648;2023-03-17T18:08:51;6.10;;;4.20;;
9547;SDS011;4812;51.992;8.648;2023-03-17T18:11:20;4.90;;;4.40;;
9547;SDS011;4812;51.992;8.648;2023-03-17T18:13:47;4.70;;;3.83;;
9547;SDS011;4812;51.992;8.648;2023-03-17T18:16:15;4.70;;;4.10;;
9547;SDS011;4812;51.992;8.648;2023-03-17T18:18:43;5.23;;;4.37;;
9547;SDS011;4812;51.992;8.648;2023-03-17T18:24:02;4.23;;;3.83;;